Time;durP1;ratioP1;P1;durP2;ratioP2;P2;SDS_P1;SDS_P2;PMS_P1;PMS_P2;Temp;Humidity;BMP_temperature;BMP_pressure;BME280_temperature;BME280_humidity;BME280_pressure;Samples;Min_cycle;Max_cycle;Signal;HPM_P1;HPM_P2
2023/07/08 00:01:09;;;;;;;11.75;10.73;;;21.20;99.90;;;;;;5290151;28;20028;-70
2023/07/08 00:03:40;;;;;;;10.90;9.80;;;21.30;99.90;;;;;;5290121;28;20026;-70
2023/07/08 00:06:18;;;;;;;10.32;9.35;;;21.20;99.90;;;;;;5289845;28;20047;-70
2023/07/08 00:08:49;;;;;;;12.15;10.93;;;21.30;99.90;;;;;;5289944;28;20023;-70
2023/07/08 00:11:20;;;;;;;12.13;10.98;;;21.30;99.90;;;;;;5289980;28;20057;-69
2023/07/08 00:13:50;;;;;;;11.60;10.57;;;21.20;99.90;;;;;;5289927;28;20020;-70
2023/07/08 00:16:23;;;;;;;11.98;10.70;;;21.20;99.90;;;;;;5289744;28;20110;-70
2023/07/08 00:18:54;;;;;;;12.73;11.63;;;21.20;99.90;;;;;;5289836;28;20047;-70
2023/07/08 00:21:25;;;;;;;12.73;11.57;;;21.20;99.90;;;;;;5289687;28;20066;-70
2023/07/08 00:23:56;;;;;;;13.60;12.10;;;21.10;99.90;;;;;;5289550;28;20483;-69
2023/07/08 00:26:29;;;;;;;14.15;12.80;;;21.20;99.90;;;;;;5289394;28;20047;-70
2023/07/08 00:29:00;;;;;;;13.82;12.55;;;21.20;99.90;;;;;;5289499;28;20027;-70
2023/07/08 00:31:31;;;;;;;14.10;12.90;;;21.10;99.90;;;;;;5289545;28;20019;-70
2023/07/08 00:34:03;;;;;;;12.57;11.38;;;21.10;99.90;;;;;;5289519;28;20031;-69
2023/07/08 00:36:34;;;;;;;13.48;12.38;;;21.10;99.90;;;;;;5289521;28;20023;-70
2023/07/08 00:39:14;;;;;;;11.70;10.70;;;21.20;99.90;;;;;;5289481;28;20024;-70
2023/07/08 00:41:46;;;;;;;13.32;12.00;;;21.20;99.90;;;;;;5289482;28;20026;-70
2023/07/08 00:44:17;;;;;;;12.88;11.70;;;21.20;99.90;;;;;;5288660;28;20027;-70
2023/07/08 00:47:08;;;;;;;12.60;11.30;;;21.20;99.90;;;;;;5289499;28;20043;-70
2023/07/08 00:49:57;;;;;;;12.50;11.25;;;21.20;99.90;;;;;;5289384;28;20516;-70
2023/07/08 00:52:29;;;;;;;12.02;10.93;;;21.30;99.90;;;;;;5289264;28;20066;-70
2023/07/08 00:55:08;;;;;;;12.85;11.55;;;21.20;99.90;;;;;;5289002;28;20066;-70
2023/07/08 00:57:42;;;;;;;13.63;12.52;;;21.20;99.90;;;;;;5289171;28;20036;-70
2023/07/08 01:00:16;;;;;;;13.75;12.55;;;21.20;99.90;;;;;;5289387;28;20095;-70
2023/07/08 01:02:54;;;;;;;12.77;11.55;;;21.10;99.90;;;;;;5289140;28;20048;-70
2023/07/08 01:05:27;;;;;;;12.13;11.05;;;21.10;99.90;;;;;;5289034;28;20070;-69
2023/07/08 01:08:01;;;;;;;13.30;12.10;;;21.10;99.90;;;;;;5288996;28;20027;-70
2023/07/08 01:10:41;;;;;;;12.20;11.20;;;21.20;99.90;;;;;;5289050;28;20036;-70
2023/07/08 01:13:14;;;;;;;11.60;10.50;;;21.20;99.90;;;;;;5289106;28;20024;-70
2023/07/08 01:15:48;;;;;;;14.23;12.93;;;21.10;99.90;;;;;;5289021;28;20475;-70
2023/07/08 01:18:21;;;;;;;12.13;11.05;;;21.20;99.90;;;;;;5288980;28;20024;-70
2023/07/08 01:20:55;;;;;;;13.20;11.95;;;21.20;99.90;;;;;;5289019;28;20536;-70
2023/07/08 01:23:26;;;;;;;12.18;11.18;;;21.10;99.90;;;;;;5288838;28;20027;-70
2023/07/08 01:25:56;;;;;;;12.02;10.82;;;21.10;99.90;;;;;;5288705;28;20399;-70
2023/07/08 01:28:29;;;;;;;12.13;10.98;;;21.10;99.90;;;;;;5288789;28;20369;-70
2023/07/08 01:31:00;;;;;;;11.60;10.40;;;20.90;99.90;;;;;;5288687;28;20032;-70
2023/07/08 01:33:34;;;;;;;12.82;11.52;;;21.10;99.90;;;;;;5288860;28;20456;-70
2023/07/08 01:36:05;;;;;;;11.82;10.63;;;21.10;99.90;;;;;;5288822;28;20110;-70
2023/07/08 01:38:36;;;;;;;12.63;11.43;;;21.00;99.90;;;;;;5288671;28;20107;-70
2023/07/08 01:41:12;;;;;;;12.80;11.50;;;21.00;99.90;;;;;;5288598;28;20034;-70
2023/07/08 01:43:43;;;;;;;11.88;10.80;;;21.00;99.90;;;;;;5288669;28;20093;-70
2023/07/08 01:46:23;;;;;;;12.90;11.60;;;21.00;99.90;;;;;;5288357;28;20027;-70
2023/07/08 01:48:57;;;;;;;12.30;11.30;;;21.00;99.90;;;;;;5288475;28;20028;-69
2023/07/08 01:51:28;;;;;;;13.02;11.77;;;21.10;99.90;;;;;;5288681;28;20059;-70
2023/07/08 01:53:59;;;;;;;13.98;12.85;;;20.90;99.90;;;;;;5288211;28;20093;-70
2023/07/08 01:56:30;;;;;;;13.00;11.80;;;21.00;99.90;;;;;;5292524;28;20024;-70
2023/07/08 01:59:01;;;;;;;13.52;12.48;;;21.10;99.90;;;;;;5292673;28;20379;-70
2023/07/08 02:01:31;;;;;;;12.60;11.50;;;21.10;99.90;;;;;;5292692;28;20027;-70
2023/07/08 02:04:02;;;;;;;13.38;11.98;;;21.10;99.90;;;;;;5292753;28;20034;-70
2023/07/08 02:06:33;;;;;;;12.68;11.68;;;21.10;99.90;;;;;;5292526;28;20413;-69
2023/07/08 02:09:05;;;;;;;12.35;11.20;;;21.10;99.90;;;;;;5292571;28;20485;-70
2023/07/08 02:11:36;;;;;;;12.48;11.43;;;20.80;99.90;;;;;;5292296;28;20015;-70
2023/07/08 02:14:07;;;;;;;13.27;12.02;;;21.00;99.90;;;;;;5292369;28;20030;-70
2023/07/08 02:16:38;;;;;;;13.05;12.00;;;21.00;99.90;;;;;;5292277;28;20031;-70
2023/07/08 02:19:11;;;;;;;13.20;12.10;;;20.90;99.90;;;;;;5292187;28;20036;-70
2023/07/08 02:21:42;;;;;;;13.70;12.48;;;21.00;99.90;;;;;;5292232;28;20102;-70
2023/07/08 02:24:16;;;;;;;13.55;12.48;;;21.00;99.90;;;;;;5292052;28;20106;-70
2023/07/08 02:26:47;;;;;;;14.18;12.88;;;20.90;99.90;;;;;;5292007;28;20039;-70
2023/07/08 02:29:18;;;;;;;12.85;11.65;;;21.00;99.90;;;;;;5273776;28;20031;-70
2023/07/08 02:31:48;;;;;;;13.07;11.88;;;21.10;99.90;;;;;;5291939;28;20450;-70
2023/07/08 02:34:19;;;;;;;12.13;11.23;;;20.90;99.90;;;;;;5291833;28;20023;-70
2023/07/08 02:36:50;;;;;;;13.30;12.20;;;21.00;99.90;;;;;;5291929;28;20098;-69
2023/07/08 02:39:21;;;;;;;14.57;13.00;;;21.00;99.90;;;;;;5291619;28;20039;-70
2023/07/08 02:41:52;;;;;;;14.35;13.23;;;21.10;99.90;;;;;;5291860;28;20077;-70
2023/07/08 02:44:22;;;;;;;13.88;12.60;;;20.80;99.90;;;;;;5291619;28;20433;-70
2023/07/08 02:46:53;;;;;;;13.75;12.50;;;21.00;99.90;;;;;;5291533;28;20032;-70
2023/07/08 02:49:24;;;;;;;13.20;12.10;;;21.10;99.90;;;;;;5291680;28;20042;-70
2023/07/08 02:51:55;;;;;;;13.30;12.07;;;21.10;99.90;;;;;;5291493;28;20169;-70
2023/07/08 02:54:25;;;;;;;12.43;11.43;;;21.20;99.90;;;;;;5291156;28;20055;-70
2023/07/08 02:56:56;;;;;;;12.95;11.73;;;21.10;99.90;;;;;;5291363;28;20058;-70
2023/07/08 02:59:28;;;;;;;14.52;13.32;;;21.10;99.90;;;;;;5291354;28;20063;-69
2023/07/08 03:01:59;;;;;;;14.98;13.45;;;21.10;99.90;;;;;;5291300;28;20420;-70
2023/07/08 03:04:30;;;;;;;12.40;11.32;;;21.00;99.90;;;;;;5291212;28;20062;-69
2023/07/08 03:07:00;;;;;;;12.80;11.38;;;21.00;99.90;;;;;;5290240;28;20046;-70
2023/07/08 03:09:32;;;;;;;11.38;10.20;;;21.10;99.90;;;;;;5291149;28;20073;-69
2023/07/08 03:12:03;;;;;;;12.13;10.90;;;21.10;99.90;;;;;;5291212;28;20072;-70
2023/07/08 03:14:34;;;;;;;11.43;10.57;;;21.10;99.90;;;;;;5291136;28;20533;-70
2023/07/08 03:17:05;;;;;;;11.75;10.75;;;21.10;99.90;;;;;;5291025;28;20011;-69
2023/07/08 03:19:36;;;;;;;13.20;11.90;;;21.00;99.90;;;;;;5291451;28;20066;-70
2023/07/08 03:22:07;;;;;;;11.77;10.55;;;20.90;99.90;;;;;;5291150;28;20467;-69
2023/07/08 03:24:45;;;;;;;11.85;10.65;;;21.00;99.90;;;;;;5291128;28;20027;-70
2023/07/08 03:27:16;;;;;;;12.05;11.05;;;20.80;99.90;;;;;;5290891;28;20506;-70
2023/07/08 03:29:47;;;;;;;13.52;12.43;;;20.90;99.90;;;;;;5290984;28;20028;-70
2023/07/08 03:32:18;;;;;;;14.68;13.45;;;20.80;99.90;;;;;;5290790;28;20042;-70
2023/07/08 03:34:49;;;;;;;14.82;13.57;;;21.00;99.90;;;;;;5290904;28;20019;-70
2023/07/08 03:37:19;;;;;;;14.40;13.10;;;21.00;99.90;;;;;;5290688;28;20035;-70
2023/07/08 03:39:50;;;;;;;14.18;13.18;;;21.10;99.90;;;;;;5290555;28;20081;-70
2023/07/08 03:42:21;;;;;;;13.60;12.55;;;21.20;99.90;;;;;;5290534;28;20023;-69
2023/07/08 03:44:52;;;;;;;14.77;13.38;;;21.30;99.90;;;;;;5290326;28;20023;-69
2023/07/08 03:47:23;;;;;;;13.07;11.88;;;21.40;99.90;;;;;;5290465;28;20065;-70
2023/07/08 03:49:53;;;;;;;11.73;10.63;;;21.50;99.90;;;;;;5290342;28;20024;-70
2023/07/08 03:52:24;;;;;;;10.52;9.63;;;21.60;99.90;;;;;;5290322;28;20040;-69
2023/07/08 03:54:56;;;;;;;10.50;9.65;;;21.60;99.90;;;;;;5290275;28;20048;-70
2023/07/08 03:57:27;;;;;;;9.20;8.40;;;21.60;99.90;;;;;;5290154;28;20032;-70
2023/07/08 03:59:57;;;;;;;9.30;8.45;;;21.80;99.90;;;;;;5290057;28;20493;-70
2023/07/08 04:02:28;;;;;;;7.10;6.60;;;22.00;99.90;;;;;;5290022;28;20118;-70
2023/07/08 04:04:59;;;;;;;8.65;7.72;;;22.10;99.90;;;;;;5290011;28;20030;-70
2023/07/08 04:07:30;;;;;;;8.48;7.78;;;22.30;99.90;;;;;;5289886;28;20028;-70
2023/07/08 04:10:00;;;;;;;8.15;7.35;;;22.30;99.90;;;;;;5289829;28;20032;-70
2023/07/08 04:12:31;;;;;;;9.15;7.25;;;22.50;99.90;;;;;;5289987;28;20074;-69
2023/07/08 04:15:03;;;;;;;8.00;7.30;;;22.40;99.90;;;;;;5289824;28;20157;-70
2023/07/08 04:17:37;;;;;;;10.23;9.48;;;22.50;99.90;;;;;;5289833;28;20356;-70
2023/07/08 04:20:10;;;;;;;8.30;7.60;;;22.60;99.90;;;;;;5289725;28;20030;-70
2023/07/08 04:22:41;;;;;;;7.50;6.95;;;22.70;99.90;;;;;;5289694;28;20031;-70
2023/07/08 04:25:13;;;;;;;6.25;5.68;;;22.80;99.90;;;;;;5271322;28;20070;-70
2023/07/08 04:27:44;;;;;;;8.60;7.85;;;22.80;99.90;;;;;;5289650;28;20024;-70
2023/07/08 04:30:24;;;;;;;11.20;10.23;;;22.70;99.90;;;;;;5289713;28;20039;-70
2023/07/08 04:32:55;;;;;;;9.70;8.90;;;22.70;99.90;;;;;;5289792;28;20039;-69
2023/07/08 04:35:26;;;;;;;6.90;6.32;;;23.00;99.90;;;;;;5289882;28;20028;-70
2023/07/08 04:37:57;;;;;;;6.78;6.07;;;23.00;99.90;;;;;;5289783;28;20026;-70
2023/07/08 04:40:28;;;;;;;7.60;6.93;;;23.20;99.90;;;;;;5289431;28;20039;-70
2023/07/08 04:42:59;;;;;;;6.53;5.97;;;23.50;99.90;;;;;;5289353;28;20016;-70
2023/07/08 04:45:30;;;;;;;6.60;5.95;;;23.60;99.90;;;;;;5289844;28;20023;-70
2023/07/08 04:48:08;;;;;;;7.00;6.30;;;23.80;99.90;;;;;;5289431;28;20026;-69
2023/07/08 04:50:43;;;;;;;6.80;6.00;;;23.90;99.90;;;;;;5289324;28;20016;-69
2023/07/08 04:53:14;;;;;;;7.90;7.10;;;24.00;99.90;;;;;;5288952;28;20061;-69
2023/07/08 04:55:50;;;;;;;11.45;10.63;;;24.20;99.90;;;;;;5289184;28;20070;-69
2023/07/08 04:58:22;;;;;;;10.00;9.13;;;24.20;99.90;;;;;;5289042;28;20055;-69
2023/07/08 05:00:53;;;;;;;10.73;9.70;;;24.40;99.90;;;;;;5289107;28;20076;-70
2023/07/08 05:03:24;;;;;;;7.05;6.45;;;24.30;99.90;;;;;;5288965;28;20142;-70
2023/07/08 05:05:54;;;;;;;6.40;5.85;;;24.20;99.90;;;;;;5288967;28;20027;-70
2023/07/08 05:08:25;;;;;;;7.68;5.90;;;24.20;99.90;;;;;;5289032;28;20109;-70
2023/07/08 05:10:56;;;;;;;6.40;5.80;;;24.30;99.90;;;;;;5288987;28;20686;-70
2023/07/08 05:13:27;;;;;;;7.80;6.28;;;24.20;99.90;;;;;;5288971;28;20031;-70
2023/07/08 05:15:57;;;;;;;5.70;5.30;;;24.20;99.90;;;;;;5288976;28;20367;-70
2023/07/08 05:18:28;;;;;;;5.63;5.22;;;24.20;99.90;;;;;;5288815;28;20024;-70
2023/07/08 05:20:59;;;;;;;6.68;6.07;;;24.20;99.90;;;;;;5288936;28;20095;-70
2023/07/08 05:23:30;;;;;;;9.85;5.78;;;24.30;99.90;;;;;;5288792;28;20092;-70
2023/07/08 05:26:03;;;;;;;6.40;5.88;;;24.20;99.90;;;;;;5288781;28;20043;-70
2023/07/08 05:28:34;;;;;;;10.57;6.97;;;24.20;99.90;;;;;;5288858;28;20367;-70
2023/07/08 05:31:04;;;;;;;8.30;7.60;;;24.30;99.90;;;;;;5292448;28;20028;-70
2023/07/08 05:33:36;;;;;;;8.05;7.32;;;24.30;99.90;;;;;;5293081;28;20020;-70
2023/07/08 05:36:07;;;;;;;7.43;6.82;;;24.60;99.90;;;;;;5293100;28;20594;-70
2023/07/08 05:38:38;;;;;;;7.00;6.10;;;24.90;99.90;;;;;;5293207;28;20020;-70
2023/07/08 05:41:08;;;;;;;6.68;6.07;;;24.80;99.90;;;;;;5292919;28;20527;-70
2023/07/08 05:43:39;;;;;;;8.20;7.25;;;25.00;99.90;;;;;;5292900;28;20044;-70
2023/07/08 05:46:10;;;;;;;8.05;7.35;;;25.10;99.90;;;;;;5292784;28;20467;-70
2023/07/08 05:48:41;;;;;;;8.02;7.43;;;25.00;99.90;;;;;;5292836;28;20032;-70
2023/07/08 05:51:12;;;;;;;8.20;7.05;;;25.00;99.90;;;;;;5292988;28;20038;-70
2023/07/08 05:53:43;;;;;;;7.20;6.57;;;25.00;99.90;;;;;;5292877;28;20126;-70
2023/07/08 05:56:13;;;;;;;8.95;7.70;;;24.90;99.90;;;;;;5292804;28;20111;-70
2023/07/08 05:58:44;;;;;;;8.95;8.20;;;24.80;99.90;;;;;;5292686;28;20429;-70
2023/07/08 06:01:15;;;;;;;9.13;8.25;;;24.80;99.90;;;;;;5292646;28;20028;-70
2023/07/08 06:03:46;;;;;;;8.68;7.80;;;24.80;99.90;;;;;;5292618;28;20106;-70
2023/07/08 06:06:16;;;;;;;8.40;7.75;;;24.70;99.90;;;;;;5292483;28;20063;-71
2023/07/08 06:08:47;;;;;;;7.85;7.25;;;24.80;99.90;;;;;;5292473;28;20114;-69
2023/07/08 06:11:18;;;;;;;9.25;7.65;;;25.00;99.90;;;;;;5292191;28;20028;-70
2023/07/08 06:13:49;;;;;;;8.73;7.72;;;25.10;99.90;;;;;;5292243;28;20433;-70
2023/07/08 06:16:20;;;;;;;7.97;7.15;;;25.00;99.90;;;;;;5292372;28;20065;-70
2023/07/08 06:18:51;;;;;;;9.55;7.22;;;24.80;99.90;;;;;;5292332;28;20102;-69
2023/07/08 06:21:21;;;;;;;10.60;7.00;;;24.60;99.90;;;;;;5292294;28;20111;-70
2023/07/08 06:23:52;;;;;;;7.50;6.85;;;24.70;99.90;;;;;;5292044;28;20059;-69
2023/07/08 06:26:23;;;;;;;8.80;7.80;;;24.60;99.90;;;;;;5291943;28;20048;-70
2023/07/08 06:28:54;;;;;;;9.45;7.88;;;24.50;99.90;;;;;;5292147;28;20028;-70
2023/07/08 06:31:25;;;;;;;8.40;6.97;;;24.60;99.90;;;;;;5291870;28;20019;-70
2023/07/08 06:33:56;;;;;;;8.15;7.05;;;24.50;99.90;;;;;;5291983;28;20024;-70
2023/07/08 06:36:26;;;;;;;7.25;6.55;;;24.60;99.90;;;;;;5291872;28;20012;-70
2023/07/08 06:38:57;;;;;;;7.32;6.82;;;24.70;99.90;;;;;;5291732;28;20026;-70
2023/07/08 06:41:28;;;;;;;8.98;6.97;;;24.60;99.90;;;;;;5290539;28;20054;-70
2023/07/08 06:43:59;;;;;;;7.63;6.85;;;24.80;99.90;;;;;;5291796;28;20521;-70
2023/07/08 06:46:30;;;;;;;7.28;6.68;;;24.70;99.90;;;;;;5291441;28;20035;-70
2023/07/08 06:49:00;;;;;;;7.63;6.90;;;24.60;99.90;;;;;;5291533;28;20023;-70
2023/07/08 06:51:31;;;;;;;7.82;6.97;;;24.80;99.90;;;;;;5291425;28;20429;-70
2023/07/08 06:54:04;;;;;;;8.82;6.68;;;24.90;99.90;;;;;;5291203;28;20091;-70
2023/07/08 06:56:35;;;;;;;7.68;6.97;;;24.90;99.90;;;;;;5291372;28;20031;-70
2023/07/08 06:59:07;;;;;;;8.00;7.15;;;24.90;99.90;;;;;;5291332;28;20434;-70
2023/07/08 07:01:38;;;;;;;7.78;7.18;;;25.40;99.90;;;;;;5291339;28;20437;-71
2023/07/08 07:04:09;;;;;;;7.70;7.10;;;25.60;99.90;;;;;;5291351;28;20020;-70
2023/07/08 07:06:40;;;;;;;7.60;6.50;;;25.90;99.90;;;;;;5291131;28;20036;-70
2023/07/08 07:09:10;;;;;;;8.10;7.30;;;25.90;99.90;;;;;;5291262;28;20417;-70
2023/07/08 07:11:41;;;;;;;8.60;7.72;;;25.90;99.90;;;;;;5291519;28;20030;-71
2023/07/08 07:14:12;;;;;;;8.35;7.60;;;26.00;99.90;;;;;;5291295;28;20054;-70
2023/07/08 07:16:43;;;;;;;8.63;7.93;;;25.80;99.90;;;;;;5291150;28;20042;-70
2023/07/08 07:19:14;;;;;;;11.00;10.05;;;26.00;99.90;;;;;;5291060;28;20015;-70
2023/07/08 07:21:44;;;;;;;10.50;9.70;;;25.80;99.90;;;;;;5291000;28;20363;-70
2023/07/08 07:24:15;;;;;;;9.15;8.30;;;25.90;99.90;;;;;;5290762;28;20111;-70
2023/07/08 07:26:46;;;;;;;8.02;7.35;;;25.80;99.90;;;;;;5290788;28;20506;-70
2023/07/08 07:29:17;;;;;;;9.75;8.30;;;26.00;99.90;;;;;;5290015;28;20107;-70
2023/07/08 07:31:49;;;;;;;9.80;8.95;;;26.00;99.90;;;;;;5290769;28;20032;-70
2023/07/08 07:34:19;;;;;;;9.10;8.30;;;26.00;99.90;;;;;;5290803;28;20077;-70
2023/07/08 07:36:50;;;;;;;8.63;7.93;;;26.10;99.90;;;;;;5290657;28;20459;-70
2023/07/08 07:39:21;;;;;;;7.80;7.18;;;26.00;99.90;;;;;;5290601;28;20020;-70
2023/07/08 07:41:51;;;;;;;7.57;6.95;;;26.10;99.90;;;;;;5290552;28;20410;-70
2023/07/08 07:44:24;;;;;;;8.20;7.32;;;26.00;99.90;;;;;;5290564;28;20038;-70
2023/07/08 07:46:55;;;;;;;6.75;6.15;;;25.90;99.90;;;;;;5290396;28;20114;-70
2023/07/08 07:49:26;;;;;;;9.63;6.18;;;26.00;99.90;;;;;;5290308;28;20104;-70
2023/07/08 07:51:57;;;;;;;7.32;6.40;;;25.90;99.90;;;;;;5290151;28;20019;-71
2023/07/08 07:54:27;;;;;;;6.97;6.28;;;25.90;99.90;;;;;;5289926;28;20079;-70
2023/07/08 07:56:58;;;;;;;7.00;5.95;;;26.00;99.90;;;;;;5290134;28;20056;-70
2023/07/08 07:59:29;;;;;;;6.03;5.53;;;25.90;99.90;;;;;;5290021;28;20028;-71
2023/07/08 08:02:00;;;;;;;7.40;6.40;;;25.90;99.90;;;;;;5289962;28;20363;-70
2023/07/08 08:04:31;;;;;;;8.65;5.97;;;26.10;99.90;;;;;;5289917;28;20070;-70
2023/07/08 08:07:01;;;;;;;7.22;6.72;;;26.50;99.90;;;;;;5289712;28;20044;-71
2023/07/08 08:09:32;;;;;;;7.18;6.20;;;26.60;99.90;;;;;;5289665;28;20051;-70
2023/07/08 08:12:04;;;;;;;7.47;6.85;;;26.50;99.90;;;;;;5289714;28;20031;-70
2023/07/08 08:14:35;;;;;;;8.13;7.40;;;26.80;99.90;;;;;;5289895;28;20024;-70
2023/07/08 08:17:06;;;;;;;7.40;6.60;;;26.70;99.90;;;;;;5289843;28;20466;-70
2023/07/08 08:19:37;;;;;;;6.15;5.65;;;26.70;99.90;;;;;;5289868;28;20028;-70
2023/07/08 08:22:07;;;;;;;6.78;5.80;;;26.60;99.90;;;;;;5289704;28;20048;-71
2023/07/08 08:24:38;;;;;;;6.32;5.28;;;26.50;99.90;;;;;;5289857;28;20055;-70
2023/07/08 08:27:09;;;;;;;9.20;5.18;;;26.60;99.90;;;;;;5289510;28;20027;-70
2023/07/08 08:29:40;;;;;;;8.50;5.38;;;26.70;99.90;;;;;;5289637;28;20090;-71
2023/07/08 08:32:11;;;;;;;8.52;5.63;;;26.30;99.90;;;;;;5289453;28;20467;-70
2023/07/08 08:34:42;;;;;;;6.80;6.10;;;26.90;99.90;;;;;;5289446;28;20020;-70
2023/07/08 08:37:13;;;;;;;6.82;6.22;;;26.60;99.90;;;;;;5289664;28;20027;-70
2023/07/08 08:39:43;;;;;;;8.68;6.18;;;26.90;99.90;;;;;;5289743;28;20028;-70
2023/07/08 08:42:30;;;;;;;5.97;5.47;;;27.10;99.90;;;;;;5289468;28;20379;-70
2023/07/08 08:45:02;;;;;;;8.30;6.32;;;27.30;99.90;;;;;;5289412;28;20034;-70
2023/07/08 08:47:45;;;;;;;7.00;6.40;;;27.00;99.90;;;;;;5289195;28;20498;-70
2023/07/08 08:50:45;;;;;;;7.70;6.65;;;26.80;99.90;;;;;;5289379;28;20134;-71
2023/07/08 08:53:18;;;;;;;7.93;7.40;;;26.80;99.90;;;;;;5288979;28;20542;-70
2023/07/08 08:56:05;;;;;;;6.80;6.13;;;26.80;99.90;;;;;;5289103;28;20040;-70
2023/07/08 08:58:55;;;;;;;9.20;6.70;;;26.50;99.90;;;;;;5288968;28;20027;-71
2023/07/08 09:01:26;;;;;;;8.57;5.75;;;26.50;99.90;;;;;;5289286;28;20016;-71
2023/07/08 09:04:17;;;;;;;8.65;6.72;;;26.30;99.90;;;;;;5288400;28;20031;-71
2023/07/08 09:06:48;;;;;;;7.22;6.53;;;26.30;99.90;;;;;;5288864;28;20483;-70
2023/07/08 09:09:27;;;;;;;11.82;6.78;;;26.40;99.90;;;;;;5288808;28;20035;-71
2023/07/08 09:12:12;;;;;;;9.03;6.53;;;26.40;99.90;;;;;;5289054;28;20054;-70
2023/07/08 09:14:42;;;;;;;7.55;6.70;;;26.50;99.90;;;;;;5288941;28;20050;-70
2023/07/08 09:17:22;;;;;;;7.50;6.80;;;26.50;99.90;;;;;;5270725;28;20024;-70
2023/07/08 09:20:01;;;;;;;6.97;6.38;;;26.30;99.90;;;;;;5288962;28;20062;-71
2023/07/08 09:22:50;;;;;;;8.10;7.30;;;26.40;99.90;;;;;;5288937;28;20114;-71
2023/07/08 09:25:36;;;;;;;6.93;6.23;;;26.50;99.90;;;;;;5288810;28;20421;-71
2023/07/08 09:28:08;;;;;;;9.48;6.47;;;26.40;99.90;;;;;;5288819;28;20073;-70
2023/07/08 09:30:39;;;;;;;8.23;6.65;;;26.30;99.90;;;;;;5288825;28;20494;-70
2023/07/08 09:33:10;;;;;;;10.82;7.10;;;26.40;99.90;;;;;;5288700;28;20057;-70
2023/07/08 09:35:45;;;;;;;7.60;6.22;;;26.30;99.90;;;;;;5288675;28;20042;-70
2023/07/08 09:38:17;;;;;;;5.88;5.22;;;26.30;99.90;;;;;;5288770;28;20016;-70
2023/07/08 09:40:53;;;;;;;8.68;6.35;;;26.10;99.90;;;;;;5288641;28;20027;-71
2023/07/08 09:43:25;;;;;;;6.95;5.35;;;26.20;99.90;;;;;;5288728;28;20492;-70
2023/07/08 09:45:59;;;;;;;6.45;4.90;;;26.10;99.90;;;;;;5288425;28;20594;-71
2023/07/08 09:48:36;;;;;;;6.13;5.43;;;26.40;99.90;;;;;;5288535;28;20438;-71
2023/07/08 09:51:08;;;;;;;6.70;6.07;;;27.20;99.90;;;;;;5288492;28;20073;-70
2023/07/08 09:53:39;;;;;;;5.68;4.70;;;27.40;99.90;;;;;;5288311;28;20101;-70
2023/07/08 09:56:10;;;;;;;7.40;6.07;;;27.30;99.90;;;;;;5288626;28;20032;-70
2023/07/08 09:58:44;;;;;;;6.40;5.85;;;27.30;99.90;;;;;;5288659;28;20465;-71
2023/07/08 10:01:25;;;;;;;5.60;5.10;;;27.80;99.90;;;;;;5288395;28;20035;-71
2023/07/08 10:04:01;;;;;;;5.07;4.57;;;27.70;99.90;;;;;;5288475;28;20119;-70
2023/07/08 10:06:33;;;;;;;8.15;5.07;;;27.20;99.90;;;;;;5288670;28;20034;-71
2023/07/08 10:09:23;;;;;;;6.07;4.88;;;27.30;99.90;;;;;;5288584;28;20058;-71
2023/07/08 10:12:04;;;;;;;6.10;5.50;;;27.20;99.90;;;;;;5288505;28;20028;-70
2023/07/08 10:14:44;;;;;;;6.30;5.70;;;26.90;99.90;;;;;;5287995;28;20019;-70
2023/07/08 10:17:17;;;;;;;11.45;5.63;;;27.30;99.90;;;;;;5291866;28;20016;-71
2023/07/08 10:19:49;;;;;;;5.80;5.30;;;27.70;99.90;;;;;;5292148;28;20426;-71
2023/07/08 10:22:42;;;;;;;11.05;6.20;;;27.50;99.90;;;;;;5291824;28;20031;-71
2023/07/08 10:25:27;;;;;;;8.88;6.00;;;27.30;99.90;;;;;;5291886;28;20039;-70
2023/07/08 10:28:12;;;;;;;8.57;6.30;;;27.70;99.90;;;;;;5292018;28;20151;-71
2023/07/08 10:31:10;;;;;;;6.93;6.15;;;27.50;99.90;;;;;;5292207;28;20026;-71
2023/07/08 10:33:46;;;;;;;6.60;5.20;;;27.50;99.90;;;;;;5291897;28;20027;-70
2023/07/08 10:36:38;;;;;;;8.70;5.20;;;27.60;99.90;;;;;;5291821;28;20089;-71
2023/07/08 10:39:38;;;;;;;10.95;5.47;;;27.40;99.90;;;;;;5273477;28;20115;-71
2023/07/08 10:42:46;;;;;;;8.95;5.68;;;27.50;99.90;;;;;;5291750;28;20035;-71
2023/07/08 10:45:43;;;;;;;10.02;5.22;;;27.30;99.90;;;;;;5291784;28;20024;-71
2023/07/08 10:48:17;;;;;;;12.23;5.00;;;27.40;99.90;;;;;;5292092;28;20035;-70
2023/07/08 10:51:01;;;;;;;8.00;5.93;;;27.10;99.90;;;;;;5291749;28;20028;-71
2023/07/08 10:53:56;;;;;;;6.88;5.78;;;27.50;99.90;;;;;;5291286;28;20067;-71
2023/07/08 10:56:40;;;;;;;6.57;5.22;;;27.50;99.90;;;;;;5291677;28;20424;-71
2023/07/08 10:59:23;;;;;;;8.18;5.28;;;28.10;99.90;;;;;;5291509;28;20020;-71
2023/07/08 11:02:25;;;;;;;9.93;5.20;;;28.20;99.90;;;;;;5291549;28;20016;-71
2023/07/08 11:05:14;;;;;;;6.63;4.65;;;28.10;99.90;;;;;;5277985;28;20530;-71
2023/07/08 11:07:57;;;;;;;7.72;4.88;;;28.10;99.90;;;;;;5291327;28;20039;-71
2023/07/08 11:10:38;;;;;;;5.53;5.03;;;28.10;99.90;;;;;;5291268;28;20031;-71
2023/07/08 11:13:18;;;;;;;9.90;4.82;;;28.40;99.90;;;;;;5291268;28;20020;-71
2023/07/08 11:16:04;;;;;;;7.32;6.05;;;28.10;99.90;;;;;;5291269;28;20471;-71
2023/07/08 11:18:42;;;;;;;5.97;5.20;;;28.30;99.90;;;;;;5290984;28;20493;-71
2023/07/08 11:21:21;;;;;;;8.13;5.30;;;28.10;99.90;;;;;;5291124;28;20030;-71
2023/07/08 11:24:21;;;;;;;8.80;5.85;;;28.50;99.90;;;;;;5291022;28;20031;-71
2023/07/08 11:27:05;;;;;;;6.60;5.32;;;28.60;99.90;;;;;;5268393;28;20079;-70
2023/07/08 11:29:53;;;;;;;7.15;6.03;;;28.60;99.90;;;;;;5290947;28;20045;-71
2023/07/08 11:32:28;;;;;;;6.07;5.47;;;28.80;99.90;;;;;;5290930;28;20029;-70
2023/07/08 11:35:04;;;;;;;7.63;5.43;;;28.40;99.90;;;;;;5272688;28;20053;-71
2023/07/08 11:37:35;;;;;;;7.75;5.13;;;28.30;99.90;;;;;;5290500;28;20023;-71
2023/07/08 11:40:20;;;;;;;7.47;6.03;;;28.70;99.90;;;;;;5290592;28;20371;-70
2023/07/08 11:42:59;;;;;;;12.38;5.82;;;28.60;99.90;;;;;;5290627;28;20606;-71
2023/07/08 11:45:36;;;;;;;7.10;6.47;;;28.80;99.90;;;;;;5290401;28;20024;-71
2023/07/08 11:48:15;;;;;;;7.50;6.82;;;28.90;99.90;;;;;;5290335;28;20040;-71
2023/07/08 11:50:48;;;;;;;9.13;5.25;;;28.90;99.90;;;;;;5290510;28;20371;-70
2023/07/08 11:53:47;;;;;;;6.10;5.50;;;28.70;99.90;;;;;;5290044;28;20498;-71
2023/07/08 11:56:23;;;;;;;6.97;5.70;;;28.70;99.90;;;;;;5290297;28;20035;-71
2023/07/08 11:59:17;;;;;;;6.60;5.65;;;29.00;99.90;;;;;;5290354;28;20027;-71
2023/07/08 12:01:51;;;;;;;6.47;5.70;;;29.20;99.90;;;;;;5290269;28;20038;-71
2023/07/08 12:04:25;;;;;;;8.52;5.82;;;29.10;99.90;;;;;;5290137;28;20019;-71
2023/07/08 12:07:09;;;;;;;9.68;6.03;;;29.20;99.90;;;;;;5290199;28;20112;-71
2023/07/08 12:10:04;;;;;;;6.63;5.68;;;29.30;99.90;;;;;;5290330;28;20024;-71
2023/07/08 12:12:41;;;;;;;6.35;5.75;;;29.50;99.90;;;;;;5290119;28;20036;-71
2023/07/08 12:15:24;;;;;;;6.55;5.88;;;29.50;99.90;;;;;;5290118;28;20036;-71
2023/07/08 12:18:16;;;;;;;11.82;6.00;;;29.40;99.90;;;;;;5289848;28;20116;-71
2023/07/08 12:20:55;;;;;;;7.63;5.43;;;29.40;99.90;;;;;;5271687;28;20530;-71
2023/07/08 12:23:27;;;;;;;6.78;5.70;;;29.50;99.90;;;;;;5289948;28;20028;-71
2023/07/08 12:25:58;;;;;;;5.53;5.03;;;29.50;99.90;;;;;;5289527;28;20047;-70
2023/07/08 12:28:29;;;;;;;6.25;5.07;;;29.50;99.90;;;;;;5289605;28;20024;-71
2023/07/08 12:31:00;;;;;;;7.40;5.57;;;29.30;99.90;;;;;;5289532;28;20020;-71
2023/07/08 12:33:34;;;;;;;7.75;5.20;;;29.50;99.90;;;;;;5289470;28;20049;-71
2023/07/08 12:36:05;;;;;;;6.43;4.75;;;29.10;99.90;;;;;;5289597;28;20019;-71
2023/07/08 12:38:40;;;;;;;5.63;5.07;;;29.10;99.90;;;;;;5288750;28;20499;-71
2023/07/08 12:41:28;;;;;;;6.18;4.72;;;29.40;99.90;;;;;;5289168;28;20486;-71
2023/07/08 12:44:00;;;;;;;5.93;5.38;;;29.40;99.90;;;;;;5289472;28;20019;-71
2023/07/08 12:46:31;;;;;;;5.80;5.40;;;29.00;99.90;;;;;;5289168;28;20491;-70
2023/07/08 12:49:02;;;;;;;5.90;5.22;;;29.00;99.90;;;;;;5289490;28;20038;-71
2023/07/08 12:51:33;;;;;;;7.53;5.57;;;28.90;99.90;;;;;;5289277;28;20012;-71
2023/07/08 12:54:04;;;;;;;5.60;5.10;;;28.70;99.90;;;;;;5289202;28;20077;-71
2023/07/08 12:56:35;;;;;;;6.30;5.60;;;28.60;99.90;;;;;;5289297;28;20035;-70
2023/07/08 12:59:07;;;;;;;6.45;5.82;;;28.60;99.90;;;;;;5289357;28;20020;-71
2023/07/08 13:01:39;;;;;;;7.75;5.60;;;28.50;99.90;;;;;;5289043;28;20019;-71
2023/07/08 13:04:12;;;;;;;7.25;5.47;;;28.50;99.90;;;;;;5289181;28;20027;-71
2023/07/08 13:06:45;;;;;;;5.85;5.07;;;28.30;99.90;;;;;;5289128;28;20035;-71
2023/07/08 13:09:22;;;;;;;5.32;4.93;;;27.80;99.90;;;;;;5289383;28;20031;-71
2023/07/08 13:11:55;;;;;;;9.93;5.53;;;27.80;99.90;;;;;;5289509;28;20015;-71
2023/07/08 13:14:27;;;;;;;6.53;5.60;;;27.60;99.90;;;;;;5289220;28;20023;-71
2023/07/08 13:16:58;;;;;;;9.27;5.18;;;27.40;99.90;;;;;;5289165;28;20116;-71